Louisville, Kansas
Current Conditions -  °F | °C
As of 6:52 AM on Friday 19 Dec 2014 (Local Time) from KMHK Reporting Station
Overcast Overcast  
Wind Chill: 30°   Ceiling: 700
Heat Index: 30°   Visibility: 7mi
Dew Point: 29°   Wind: 0mph
Humidity: 96%   Direction: NA
Pressure: 30.23"   Gusts: NA
Location:  39.25°N, 96.32°W
Report Text: KMHK 191252Z AUTO 00000KT 7SM OVC007 M01/M02 A3023 RMK AO2 SLP246 T10111017 TSNO
Loading
Personal Weather Stations






























Interactive Weather Map New forecast layout! Learn more

10-Day Weather Forecast

Advertisements
Track Severe Weather on mobile